Addicks, Texas
Current Conditions -  °F | °C
As of 12:53 AM on Sunday 21 Dec 2014 (Local Time) from KSGR Reporting Station
Overcast Overcast  
Wind Chill: 12°   Ceiling: 2300
Heat Index: 12°   Visibility: 10mi
Dew Point:   Wind: 6mph
Humidity: 80%   Direction: 40°NE
Pressure: 30.16"   Gusts: NA
Location:  29.7757°N, 95.6037°W
Report Text: KSGR 210653Z 04005KT 10SM OVC023 12/08 A3016 RMK AO2 SLP215 T01170083
Loading
Personal Weather Stations






























Interactive Weather Map New forecast layout! Learn more

10-Day Weather Forecast

Advertisements
Track Severe Weather on mobile